Time;durP1;ratioP1;P1;durP2;ratioP2;P2;SDS_P1;SDS_P2;PMS_P1;PMS_P2;Temp;Humidity;BMP_temperature;BMP_pressure;BME280_temperature;BME280_humidity;BME280_pressure;Samples;Min_cycle;Max_cycle;Signal;HPM_P1;HPM_P2
2024/01/14 00:01:56;;;;;;;;;;;;;;;0.41;100.00;101573.50;5054015;28;20366;-74
2024/01/14 00:04:22;;;;;;;;;;;;;;;0.40;100.00;101556.28;5062293;28;19924;-74
2024/01/14 00:06:47;;;;;;;;;;;;;;;0.41;100.00;101555.47;5060421;28;20292;-75
2024/01/14 00:09:12;;;;;;;;;;;;;;;0.42;100.00;101564.97;5048714;28;19920;-78
2024/01/14 00:11:39;;;;;;;;;;;;;;;0.41;100.00;101552.88;5033539;28;20078;-78
2024/01/14 00:14:04;;;;;;;;;;;;;;;0.44;100.00;101563.31;5056027;28;19951;-77
2024/01/14 00:16:34;;;;;;;;;;;;;;;0.41;100.00;101565.78;5037146;28;19967;-79
2024/01/14 00:19:00;;;;;;;;;;;;;;;0.44;100.00;101553.88;5054567;28;19923;-74
2024/01/14 00:21:25;;;;;;;;;;;;;;;0.40;100.00;101556.28;5047314;28;19928;-78
2024/01/14 00:23:50;;;;;;;;;;;;;;;0.40;100.00;101556.28;5038482;28;20380;-77
2024/01/14 00:26:16;;;;;;;;;;;;;;;0.41;100.00;101558.03;5063350;28;20574;-77
2024/01/14 00:28:41;;;;;;;;;;;;;;;0.41;100.00;101547.72;5057182;28;19923;-77
2024/01/14 00:31:06;;;;;;;;;;;;;;;0.40;100.00;101543.38;5044145;28;20133;-77
2024/01/14 00:33:31;;;;;;;;;;;;;;;0.41;100.00;101534.84;5041172;28;19924;-77
2024/01/14 00:36:01;;;;;;;;;;;;;;;0.40;100.00;101536.50;5037692;28;19920;-79
2024/01/14 00:38:26;;;;;;;;;;;;;;;0.40;100.00;101533.94;5060448;28;19916;-78
2024/01/14 00:40:51;;;;;;;;;;;;;;;0.41;100.00;101527.09;5041206;28;20138;-79
2024/01/14 00:43:20;;;;;;;;;;;;;;;0.43;100.00;101526.34;5046872;28;20403;-77
2024/01/14 00:45:46;;;;;;;;;;;;;;;0.42;100.00;101518.56;5047590;28;20019;-77
2024/01/14 00:48:11;;;;;;;;;;;;;;;0.44;100.00;101522.06;5037499;28;20015;-77
2024/01/14 00:50:36;;;;;;;;;;;;;;;0.43;100.00;101525.44;5044033;28;19921;-78
2024/01/14 00:53:03;;;;;;;;;;;;;;;0.45;100.00;101529.00;5037295;28;20332;-76
2024/01/14 00:55:28;;;;;;;;;;;;;;;0.43;100.00;101512.56;5046121;28;19928;-79
2024/01/14 00:57:53;;;;;;;;;;;;;;;0.43;100.00;101509.97;5046173;28;20379;-77
2024/01/14 01:00:19;;;;;;;;;;;;;;;0.45;100.00;101508.38;5049854;28;19939;-77
2024/01/14 01:02:49;;;;;;;;;;;;;;;0.45;100.00;101504.06;5059896;28;19917;-78
2024/01/14 01:05:14;;;;;;;;;;;;;;;0.47;100.00;101505.00;5053888;28;19916;-79
2024/01/14 01:07:39;;;;;;;;;;;;;;;0.48;100.00;101503.31;5049443;28;19920;-77
2024/01/14 01:10:05;;;;;;;;;;;;;;;0.50;100.00;101512.00;5045591;28;19966;-78
2024/01/14 01:12:31;;;;;;;;;;;;;;;0.49;100.00;101503.38;5060670;28;19912;-77
2024/01/14 01:14:56;;;;;;;;;;;;;;;0.52;100.00;101502.63;5066553;28;19919;-74
2024/01/14 01:17:21;;;;;;;;;;;;;;;0.49;100.00;101494.78;5036695;28;20344;-74
2024/01/14 01:19:47;;;;;;;;;;;;;;;0.50;100.00;101499.09;5054250;28;19920;-75
2024/01/14 01:22:12;;;;;;;;;;;;;;;0.50;100.00;101488.78;5069731;28;20302;-75
2024/01/14 01:24:38;;;;;;;;;;;;;;;0.50;100.00;101486.19;5041020;28;19932;-75
2024/01/14 01:27:04;;;;;;;;;;;;;;;0.53;100.00;101494.06;5056797;28;19939;-75
2024/01/14 01:29:30;;;;;;;;;;;;;;;0.51;100.00;101493.13;5052343;28;19920;-74
2024/01/14 01:31:58;;;;;;;;;;;;;;;0.52;100.00;101479.41;5042591;28;20446;-74
2024/01/14 01:34:24;;;;;;;;;;;;;;;0.54;100.00;101477.78;5043599;28;19990;-75
2024/01/14 01:36:49;;;;;;;;;;;;;;;0.52;100.00;101466.53;5048920;28;20384;-75
2024/01/14 01:39:14;;;;;;;;;;;;;;;0.54;100.00;101474.31;5049277;28;20311;-74
2024/01/14 01:41:40;;;;;;;;;;;;;;;0.52;100.00;101471.69;5050254;28;20300;-74
2024/01/14 01:44:05;;;;;;;;;;;;;;;0.54;100.00;101461.44;5052681;28;19928;-74
2024/01/14 01:46:31;;;;;;;;;;;;;;;0.55;100.00;101465.75;5053850;28;20000;-74
2024/01/14 01:48:57;;;;;;;;;;;;;;;0.53;100.00;101473.41;5053023;28;19920;-75
2024/01/14 01:51:22;;;;;;;;;;;;;;;0.53;100.00;101445.06;5056440;28;19924;-75
2024/01/14 01:53:48;;;;;;;;;;;;;;;0.51;100.00;101446.72;5043646;28;19963;-74
2024/01/14 01:56:13;;;;;;;;;;;;;;;0.55;100.00;101448.59;5039331;28;19928;-76
2024/01/14 01:58:39;;;;;;;;;;;;;;;0.50;100.00;101445.84;5046862;28;19964;-75
2024/01/14 02:01:05;;;;;;;;;;;;;;;0.56;100.00;101452.03;5059570;28;19922;-75
2024/01/14 02:03:32;;;;;;;;;;;;;;;0.51;100.00;101455.31;5040604;28;19924;-75
2024/01/14 02:06:01;;;;;;;;;;;;;;;0.50;100.00;101460.41;5059048;28;20303;-75
2024/01/14 02:08:27;;;;;;;;;;;;;;;0.51;100.00;101457.03;5061404;28;19959;-75
2024/01/14 02:10:52;;;;;;;;;;;;;;;0.49;100.00;101450.94;5063492;28;19994;-75
2024/01/14 02:13:18;;;;;;;;;;;;;;;0.49;100.00;101445.78;5064323;28;19916;-75
2024/01/14 02:15:43;;;;;;;;;;;;;;;0.46;100.00;101437.91;5063677;28;20011;-75
2024/01/14 02:18:08;;;;;;;;;;;;;;;0.45;100.00;101433.59;5040392;28;19921;-75
2024/01/14 02:20:34;;;;;;;;;;;;;;;0.51;100.00;101433.81;5039533;28;19964;-75
2024/01/14 02:22:59;;;;;;;;;;;;;;;0.48;100.00;101432.00;5046560;28;20011;-75
2024/01/14 02:25:25;;;;;;;;;;;;;;;0.46;100.00;101435.31;5075316;28;19927;-74
2024/01/14 02:27:50;;;;;;;;;;;;;;;0.45;100.00;101431.00;5049934;28;19920;-75
2024/01/14 02:30:16;;;;;;;;;;;;;;;0.47;100.00;101426.78;5044383;28;20269;-75
2024/01/14 02:32:42;;;;;;;;;;;;;;;0.46;100.00;101428.47;5060792;28;19973;-75
2024/01/14 02:35:07;;;;;;;;;;;;;;;0.49;100.00;101430.31;5043890;28;20298;-74
2024/01/14 02:37:35;;;;;;;;;;;;;;;0.44;100.00;101424.06;5040052;28;19920;-75
2024/01/14 02:40:01;;;;;;;;;;;;;;;0.45;100.00;101424.13;5060643;28;19920;-74
2024/01/14 02:42:26;;;;;;;;;;;;;;;0.44;100.00;101424.06;5053563;28;20402;-75
2024/01/14 02:44:51;;;;;;;;;;;;;;;0.41;100.00;101417.09;5046500;28;19925;-75
2024/01/14 02:47:17;;;;;;;;;;;;;;;0.40;100.00;101411.88;5059453;28;19931;-74
2024/01/14 02:49:42;;;;;;;;;;;;;;;0.42;100.00;101415.41;5047246;28;19959;-75
2024/01/14 02:52:08;;;;;;;;;;;;;;;0.38;100.00;101403.22;5049911;28;19957;-75
2024/01/14 02:54:33;;;;;;;;;;;;;;;0.39;100.00;101400.69;5031303;28;19921;-75
2024/01/14 02:56:58;;;;;;;;;;;;;;;0.39;100.00;101398.13;5044488;28;19946;-75
2024/01/14 02:59:24;;;;;;;;;;;;;;;0.39;100.00;101399.81;5060827;28;19936;-75
2024/01/14 03:01:50;;;;;;;;;;;;;;;0.39;100.00;101397.22;5052218;28;19920;-75
2024/01/14 03:04:16;;;;;;;;;;;;;;;0.37;100.00;101392.00;5046991;28;20346;-75
2024/01/14 03:06:41;;;;;;;;;;;;;;;0.40;100.00;101391.25;5064038;28;19916;-75
2024/01/14 03:09:07;;;;;;;;;;;;;;;0.41;100.00;101393.88;5051016;28;19924;-74
2024/01/14 03:11:33;;;;;;;;;;;;;;;0.39;100.00;101389.50;5057958;28;19916;-75
2024/01/14 03:13:58;;;;;;;;;;;;;;;0.38;100.00;101387.75;5038895;28;19920;-75
2024/01/14 03:16:23;;;;;;;;;;;;;;;0.37;100.00;101381.69;5048236;28;19928;-75
2024/01/14 03:18:49;;;;;;;;;;;;;;;0.41;100.00;101377.56;5065837;28;20360;-75
2024/01/14 03:21:20;;;;;;;;;;;;;;;0.39;100.00;101371.44;5065201;28;20780;-74
2024/01/14 03:23:46;;;;;;;;;;;;;;;0.37;100.00;101375.66;5055259;28;19966;-75
2024/01/14 03:26:11;;;;;;;;;;;;;;;0.36;100.00;101381.63;5043243;28;19971;-74
2024/01/14 03:28:37;;;;;;;;;;;;;;;0.38;100.00;101374.84;5043063;28;19989;-75
2024/01/14 03:31:02;;;;;;;;;;;;;;;0.35;100.00;101367.88;5038814;28;19928;-77
2024/01/14 03:33:28;;;;;;;;;;;;;;;0.37;100.00;101375.66;5058733;28;20023;-77
2024/01/14 03:35:53;;;;;;;;;;;;;;;0.37;100.00;101370.50;5058421;28;20292;-77
2024/01/14 03:38:19;;;;;;;;;;;;;;;0.36;100.00;101363.59;5037936;28;20383;-77
2024/01/14 03:40:44;;;;;;;;;;;;;;;0.34;100.00;101376.44;5061301;28;19916;-78
2024/01/14 03:43:10;;;;;;;;;;;;;;;0.37;100.00;101367.94;5044600;28;20388;-78
2024/01/14 03:45:37;;;;;;;;;;;;;;;0.34;100.00;101368.69;5055323;28;19920;-78
2024/01/14 03:48:03;;;;;;;;;;;;;;;0.31;100.00;101366.00;5043670;28;20007;-78
2024/01/14 03:50:28;;;;;;;;;;;;;;;0.31;100.00;101361.72;5041020;28;20035;-78
2024/01/14 03:52:54;;;;;;;;;;;;;;;0.31;100.00;101361.72;5048470;28;19921;-77
2024/01/14 03:55:19;;;;;;;;;;;;;;;0.30;100.00;101359.97;5038251;28;19920;-77
2024/01/14 03:57:44;;;;;;;;;;;;;;;0.28;100.00;101351.28;5038034;28;19935;-78
2024/01/14 04:00:10;;;;;;;;;;;;;;;0.29;100.00;101355.63;5040373;28;19971;-77
2024/01/14 04:02:36;;;;;;;;;;;;;;;0.30;100.00;101348.75;5040012;28;19928;-77
2024/01/14 04:05:03;;;;;;;;;;;;;;;0.27;100.00;101356.38;5040400;28;19924;-78
2024/01/14 04:07:28;;;;;;;;;;;;;;;0.27;100.00;101356.38;5061439;28;19920;-78
2024/01/14 04:09:54;;;;;;;;;;;;;;;0.29;100.00;101352.19;5044311;28;20364;-74
2024/01/14 04:12:19;;;;;;;;;;;;;;;0.29;100.00;101347.91;5047369;28;19920;-74
2024/01/14 04:14:44;;;;;;;;;;;;;;;0.25;100.00;101343.44;5039383;28;20404;-75
2024/01/14 04:17:10;;;;;;;;;;;;;;;0.25;100.00;101333.13;5038394;28;19934;-74
2024/01/14 04:19:36;;;;;;;;;;;;;;;0.25;100.00;101335.72;5063844;28;19958;-74
2024/01/14 04:22:02;;;;;;;;;;;;;;;0.23;100.00;101332.22;5049332;28;19977;-74
2024/01/14 04:24:29;;;;;;;;;;;;;;;0.26;100.00;101342.63;5040158;28;20015;-75
2024/01/14 04:26:55;;;;;;;;;;;;;;;0.23;100.00;101339.94;5056315;28;19926;-74
2024/01/14 04:29:20;;;;;;;;;;;;;;;0.26;100.00;101329.75;5040394;28;19921;-74
2024/01/14 04:31:46;;;;;;;;;;;;;;;0.24;100.00;101328.78;5039178;28;20005;-73
2024/01/14 04:34:12;;;;;;;;;;;;;;;0.23;100.00;101327.06;5039806;28;19939;-74
2024/01/14 04:36:37;;;;;;;;;;;;;;;0.24;100.00;101326.22;5040745;28;20015;-74
2024/01/14 04:39:02;;;;;;;;;;;;;;;0.23;100.00;101331.31;5039868;28;19920;-74
2024/01/14 04:41:28;;;;;;;;;;;;;;;0.21;100.00;101328.66;5042342;28;19958;-74
2024/01/14 04:43:53;;;;;;;;;;;;;;;0.20;100.00;101324.31;5054173;28;19924;-74
2024/01/14 04:46:22;;;;;;;;;;;;;;;0.22;100.00;101324.41;5056318;28;19923;-73
2024/01/14 04:48:47;;;;;;;;;;;;;;;0.22;100.00;101319.25;5065291;28;19977;-74
2024/01/14 04:51:13;;;;;;;;;;;;;;;0.19;100.00;101324.28;5034639;28;19967;-74
2024/01/14 04:53:38;;;;;;;;;;;;;;;0.17;100.00;101324.22;5058647;28;19925;-74
2024/01/14 04:56:05;;;;;;;;;;;;;;;0.19;100.00;101322.59;5037156;28;20289;-74
2024/01/14 04:58:30;;;;;;;;;;;;;;;0.16;100.00;101315.63;5063402;28;20410;-74
2024/01/14 05:00:56;;;;;;;;;;;;;;;0.14;100.00;101306.06;5041938;28;20007;-74
2024/01/14 05:03:21;;;;;;;;;;;;;;;0.14;100.00;101300.91;5043278;28;20041;-74
2024/01/14 05:05:47;;;;;;;;;;;;;;;0.10;100.00;101296.44;5039593;28;19928;-74
2024/01/14 05:08:12;;;;;;;;;;;;;;;0.09;100.00;101285.28;5060330;28;20031;-74
2024/01/14 05:15:42;;;;;;;;;;;;;;;0.04;100.00;101293.66;5077208;28;20376;-75
2024/01/14 05:18:07;;;;;;;;;;;;;;;0.03;100.00;101286.72;5053581;28;19925;-75
2024/01/14 05:20:32;;;;;;;;;;;;;;;0.04;100.00;101291.94;5049927;28;19920;-74
2024/01/14 05:22:58;;;;;;;;;;;;;;;0.03;100.00;101286.72;5080552;22;19928;-75
2024/01/14 05:25:23;;;;;;;;;;;;;;;0.01;100.00;101285.81;5041319;28;19971;-77
2024/01/14 05:27:48;;;;;;;;;;;;;;;-0.02;100.00;101284.84;5053497;28;19932;-77
2024/01/14 05:30:14;;;;;;;;;;;;;;;-0.04;100.00;101278.78;5069184;28;19923;-77
2024/01/14 05:32:40;;;;;;;;;;;;;;;-0.04;100.00;101286.50;5056616;28;20405;-77
2024/01/14 05:35:06;;;;;;;;;;;;;;;-0.05;100.00;101278.72;5039939;28;20280;-77
2024/01/14 05:37:34;;;;;;;;;;;;;;;-0.08;100.00;101279.47;5051666;28;19920;-77
2024/01/14 05:39:59;;;;;;;;;;;;;;;-0.08;100.00;101276.91;5067620;28;19928;-77
2024/01/14 05:42:25;;;;;;;;;;;;;;;-0.09;100.00;101274.25;5064939;28;19935;-77
2024/01/14 05:44:50;;;;;;;;;;;;;;;-0.10;100.00;101265.66;5056229;28;20010;-77
2024/01/14 05:47:15;;;;;;;;;;;;;;;-0.10;100.00;101260.50;5055037;28;19927;-76
2024/01/14 05:49:41;;;;;;;;;;;;;;;-0.10;100.00;101265.66;5056222;28;19920;-74
2024/01/14 05:52:06;;;;;;;;;;;;;;;-0.10;100.00;101259.63;5052653;28;20401;-74
2024/01/14 05:57:07;;;;;;;;;;;;;;;-0.11;100.00;101265.59;5072291;23;19925;-77
2024/01/14 05:59:33;;;;;;;;;;;;;;;-0.14;100.00;101258.63;5056218;28;19928;-77
2024/01/14 06:01:59;;;;;;;;;;;;;;;-0.12;100.00;101258.69;5043623;28;19921;-78
2024/01/14 06:04:25;;;;;;;;;;;;;;;-0.14;100.00;101248.34;5047930;28;19932;-77
2024/01/14 06:06:50;;;;;;;;;;;;;;;-0.14;100.00;101248.34;5044836;28;20373;-78
2024/01/14 06:09:16;;;;;;;;;;;;;;;-0.18;100.00;101239.59;5060611;28;19916;-77
2024/01/14 06:11:41;;;;;;;;;;;;;;;-0.18;100.00;101236.16;5053218;28;20291;-77
2024/01/14 06:14:07;;;;;;;;;;;;;;;-0.14;100.00;101239.69;5071638;28;19916;-76
2024/01/14 06:16:32;;;;;;;;;;;;;;;-0.19;100.00;101237.84;5060305;28;19916;-77
2024/01/14 06:18:58;;;;;;;;;;;;;;;-0.19;100.00;101240.44;5052086;28;19921;-77
2024/01/14 06:21:23;;;;;;;;;;;;;;;-0.22;100.00;101229.13;5052325;28;20000;-78
2024/01/14 06:23:49;;;;;;;;;;;;;;;-0.23;100.00;101232.50;5059863;28;19921;-77
2024/01/14 06:26:15;;;;;;;;;;;;;;;-0.23;100.00;101227.34;5049391;28;20030;-77
2024/01/14 06:28:40;;;;;;;;;;;;;;;-0.24;100.00;101220.47;5051856;28;19924;-78
2024/01/14 06:31:07;;;;;;;;;;;;;;;-0.22;100.00;101227.41;5040970;28;19923;-77
2024/01/14 06:33:33;;;;;;;;;;;;;;;-0.23;100.00;101217.03;5053767;28;20000;-77
2024/01/14 06:35:58;;;;;;;;;;;;;;;-0.22;100.00;101216.25;5044740;28;20299;-77
2024/01/14 06:38:24;;;;;;;;;;;;;;;-0.23;100.00;101210.22;5056384;28;19920;-77
2024/01/14 06:40:49;;;;;;;;;;;;;;;-0.21;100.00;101212.84;5048484;28;20371;-77
2024/01/14 06:43:15;;;;;;;;;;;;;;;-0.20;100.00;101209.47;5045180;28;19929;-77
2024/01/14 06:45:41;;;;;;;;;;;;;;;-0.19;100.00;101212.09;5066278;28;19951;-76
2024/01/14 06:48:06;;;;;;;;;;;;;;;-0.19;100.00;101208.63;5041518;28;19963;-78
2024/01/14 06:50:31;;;;;;;;;;;;;;;-0.19;100.00;101206.03;5058169;28;19917;-77
2024/01/14 06:52:57;;;;;;;;;;;;;;;-0.19;100.00;101201.78;5050917;28;19924;-78
2024/01/14 06:55:22;;;;;;;;;;;;;;;-0.17;100.00;101199.28;5076845;28;19924;-78
2024/01/14 06:57:47;;;;;;;;;;;;;;;-0.17;100.00;101199.28;5058122;28;19920;-77
2024/01/14 07:00:14;;;;;;;;;;;;;;;-0.17;100.00;101194.13;5070790;28;19924;-78
2024/01/14 07:02:58;;;;;;;;;;;;;;;-0.13;100.00;101183.13;5054988;28;19924;-77
2024/01/14 07:05:23;;;;;;;;;;;;;;;-0.16;100.00;101179.53;5075984;28;19971;-77
2024/01/14 07:07:48;;;;;;;;;;;;;;;-0.18;100.00;101176.91;5046195;28;20331;-77
2024/01/14 07:10:14;;;;;;;;;;;;;;;-0.17;100.00;101178.66;5052812;28;20277;-77
2024/01/14 07:12:39;;;;;;;;;;;;;;;-0.16;100.00;101182.09;5052892;28;19928;-78
2024/01/14 07:15:05;;;;;;;;;;;;;;;-0.20;100.00;101182.00;5052205;28;19920;-77
2024/01/14 07:17:30;;;;;;;;;;;;;;;-0.19;100.00;101182.88;5053103;28;19921;-77
2024/01/14 07:19:55;;;;;;;;;;;;;;;-0.19;100.00;101172.56;5064819;28;19916;-77
2024/01/14 07:22:22;;;;;;;;;;;;;;;-0.18;100.00;101184.63;5056501;28;19924;-79
2024/01/14 07:24:47;;;;;;;;;;;;;;;-0.20;100.00;101182.00;5054964;28;19970;-77
2024/01/14 07:27:12;;;;;;;;;;;;;;;-0.19;100.00;101177.72;5052248;28;20294;-78
2024/01/14 07:29:38;;;;;;;;;;;;;;;-0.18;100.00;101182.91;5067154;28;20899;-77
2024/01/14 07:32:04;;;;;;;;;;;;;;;-0.15;100.00;101184.75;5057015;28;20003;-76
2024/01/14 07:34:29;;;;;;;;;;;;;;;-0.18;100.00;101179.47;5058828;28;20027;-78
2024/01/14 07:36:55;;;;;;;;;;;;;;;-0.18;100.00;101179.47;5057565;28;20291;-78
2024/01/14 07:39:20;;;;;;;;;;;;;;;-0.16;100.00;101188.13;5056582;28;19924;-78
2024/01/14 07:41:48;;;;;;;;;;;;;;;-0.13;100.00;101183.13;5050728;28;19920;-78
2024/01/14 07:44:14;;;;;;;;;;;;;;;-0.17;100.00;101186.41;5066245;28;20040;-78
2024/01/14 07:46:39;;;;;;;;;;;;;;;-0.14;100.00;101190.75;5054449;28;20395;-79
2024/01/14 07:49:04;;;;;;;;;;;;;;;-0.17;100.00;101186.41;5057827;28;20378;-77
2024/01/14 07:51:30;;;;;;;;;;;;;;;-0.19;100.00;101188.91;5052484;28;19970;-76
2024/01/14 07:53:55;;;;;;;;;;;;;;;-0.19;100.00;101183.75;5047493;28;19931;-77
2024/01/14 07:56:21;;;;;;;;;;;;;;;-0.19;100.00;101178.63;5069925;28;19931;-77
2024/01/14 07:58:47;;;;;;;;;;;;;;;-0.19;100.00;101183.75;5063331;28;20272;-77
2024/01/14 08:01:12;;;;;;;;;;;;;;;-0.17;100.00;101181.25;5049944;28;19927;-76
2024/01/14 08:03:37;;;;;;;;;;;;;;;-0.18;100.00;101179.47;5055652;28;19932;-77
2024/01/14 08:06:03;;;;;;;;;;;;;;;-0.16;100.00;101177.81;5050480;28;20280;-78
2024/01/14 08:08:28;;;;;;;;;;;;;;;-0.16;100.00;101177.81;5053053;28;20288;-77
2024/01/14 08:10:54;;;;;;;;;;;;;;;-0.18;100.00;101174.31;5055597;28;19920;-77
2024/01/14 08:13:19;;;;;;;;;;;;;;;-0.16;100.00;101182.97;5056286;28;19985;-78
2024/01/14 08:15:47;;;;;;;;;;;;;;;-0.14;100.00;101186.50;5042052;28;19925;-77
2024/01/14 08:18:12;;;;;;;;;;;;;;;-0.07;100.00;101183.34;5056715;28;19947;-77
2024/01/14 08:20:38;;;;;;;;;;;;;;;-0.10;100.00;101192.63;5074709;28;20223;-78
2024/01/14 08:23:05;;;;;;;;;;;;;;;-0.10;100.00;101187.47;5055564;28;20706;-78
2024/01/14 08:25:30;;;;;;;;;;;;;;;-0.12;100.00;101183.97;5052943;28;20023;-78
2024/01/14 08:27:56;;;;;;;;;;;;;;;-0.13;100.00;101183.13;5052519;28;20011;-77
2024/01/14 08:30:22;;;;;;;;;;;;;;;-0.09;100.00;101181.50;5053855;28;19925;-76
2024/01/14 08:32:47;;;;;;;;;;;;;;;-0.14;100.00;101189.09;5057920;28;20374;-77
2024/01/14 08:35:13;;;;;;;;;;;;;;;-0.12;100.00;101192.56;5058319;28;20003;-77
2024/01/14 08:37:41;;;;;;;;;;;;;;;-0.10;100.00;101188.38;5074302;28;20383;-77
2024/01/14 08:40:06;;;;;;;;;;;;;;;-0.10;100.00;101183.22;5066561;28;19927;-77
2024/01/14 08:42:33;;;;;;;;;;;;;;;-0.10;100.00;101172.91;5059564;28;19916;-76
2024/01/14 08:44:58;;;;;;;;;;;;;;;-0.09;100.00;101174.66;5073839;28;20287;-76
2024/01/14 08:47:23;;;;;;;;;;;;;;;-0.06;100.00;101161.91;5052978;28;19924;-77
2024/01/14 08:49:49;;;;;;;;;;;;;;;-0.02;100.00;101165.47;5057692;28;19916;-77
2024/01/14 08:52:14;;;;;;;;;;;;;;;-0.01;100.00;101156.91;5049868;28;20415;-76
2024/01/14 08:54:39;;;;;;;;;;;;;;;0.01;100.00;101159.56;5047051;28;19924;-77
2024/01/14 08:57:05;;;;;;;;;;;;;;;0.03;100.00;101155.31;5049338;28;20339;-76
2024/01/14 08:59:30;;;;;;;;;;;;;;;0.05;100.00;101158.84;5064208;28;19927;-76
2024/01/14 09:01:55;;;;;;;;;;;;;;;0.06;100.00;101152.84;5047664;28;20003;-77
2024/01/14 09:04:20;;;;;;;;;;;;;;;0.09;100.00;101158.13;5052564;28;19928;-77
2024/01/14 09:06:46;;;;;;;;;;;;;;;0.11;100.00;101164.22;5045627;28;20398;-77
2024/01/14 09:09:12;;;;;;;;;;;;;;;0.11;100.00;101149.63;5050560;28;19924;-76
2024/01/14 09:11:37;;;;;;;;;;;;;;;0.12;100.00;101160.81;5060744;28;19948;-77
2024/01/14 09:14:02;;;;;;;;;;;;;;;0.15;100.00;101160.94;5070230;28;20364;-77
2024/01/14 09:16:29;;;;;;;;;;;;;;;0.16;100.00;101154.97;5066503;28;20397;-77
2024/01/14 09:18:54;;;;;;;;;;;;;;;0.17;100.00;101152.44;5060663;28;19935;-77
2024/01/14 09:21:19;;;;;;;;;;;;;;;0.18;100.00;101155.88;5054804;28;19920;-77
2024/01/14 09:23:45;;;;;;;;;;;;;;;0.18;100.00;101145.56;5058022;28;19978;-77
2024/01/14 09:26:10;;;;;;;;;;;;;;;0.21;100.00;101153.41;5055861;28;20058;-78
2024/01/14 09:28:36;;;;;;;;;;;;;;;0.21;100.00;101139.66;5047172;28;19924;-76
2024/01/14 09:31:02;;;;;;;;;;;;;;;0.25;100.00;101147.53;5052891;28;19917;-76
2024/01/14 09:33:27;;;;;;;;;;;;;;;0.28;100.00;101144.19;5052494;28;19925;-76
2024/01/14 09:35:54;;;;;;;;;;;;;;;0.25;100.00;101138.94;5068506;28;19916;-76
2024/01/14 09:38:19;;;;;;;;;;;;;;;0.25;100.00;101139.81;5051844;28;19970;-77
2024/01/14 09:40:54;;;;;;;;;;;;;;;0.26;100.00;101132.94;5048425;28;20066;-76
2024/01/14 09:43:20;;;;;;;;;;;;;;;0.30;100.00;101124.50;5072910;28;20205;-78
2024/01/14 09:45:46;;;;;;;;;;;;;;;0.33;100.00;101127.16;5066181;28;19975;-72
2024/01/14 09:48:15;;;;;;;;;;;;;;;0.40;100.00;101117.97;5070856;28;19920;-75
2024/01/14 09:50:42;;;;;;;;;;;;;;;0.39;100.00;101132.56;5066476;28;19916;-78
2024/01/14 09:53:11;;;;;;;;;;;;;;;0.40;100.00;101117.97;5044105;28;20298;-78
2024/01/14 09:56:18;;;;;;;;;;;;;;;0.46;100.00;101123.31;5067641;28;20032;-74
2024/01/14 09:58:46;;;;;;;;;;;;;;;0.44;100.00;101112.94;5069110;28;19931;-77
2024/01/14 10:01:16;;;;;;;;;;;;;;;0.45;100.00;101117.28;5028394;28;22955;-68
2024/01/14 10:03:42;;;;;;;;;;;;;;;0.45;100.00;101119.00;5070827;28;19935;-66
2024/01/14 10:06:07;;;;;;;;;;;;;;;0.47;100.00;101114.75;5054099;28;19920;-64
2024/01/14 10:08:32;;;;;;;;;;;;;;;0.48;100.00;101116.53;5057854;28;20019;-65
2024/01/14 10:10:58;;;;;;;;;;;;;;;0.51;100.00;101112.31;5047819;28;19986;-64
2024/01/14 10:13:25;;;;;;;;;;;;;;;0.56;100.00;101109.03;5054809;28;19936;-66
2024/01/14 10:15:52;;;;;;;;;;;;;;;0.62;100.00;101104.97;5053456;28;19968;-66
2024/01/14 10:18:17;;;;;;;;;;;;;;;0.64;100.00;101097.28;5049267;28;20291;-66
2024/01/14 10:20:43;;;;;;;;;;;;;;;0.66;100.00;101093.94;5041722;28;19943;-66
2024/01/14 10:23:11;;;;;;;;;;;;;;;0.72;100.00;101084.63;5048710;28;19932;-66
2024/01/14 10:25:37;;;;;;;;;;;;;;;0.72;100.00;101082.94;5068625;28;19916;-70
2024/01/14 10:28:03;;;;;;;;;;;;;;;0.79;100.00;101082.31;5056021;28;19927;-69
2024/01/14 10:30:28;;;;;;;;;;;;;;;0.82;100.00;101076.34;5057309;28;19924;-69
2024/01/14 10:32:55;;;;;;;;;;;;;;;0.86;100.00;101070.44;5060513;28;19925;-70
2024/01/14 10:35:20;;;;;;;;;;;;;;;0.94;100.00;101083.63;5077403;28;20018;-69
2024/01/14 10:37:45;;;;;;;;;;;;;;;0.99;100.00;101070.03;5067761;28;20536;-71
2024/01/14 10:40:12;;;;;;;;;;;;;;;1.03;100.00;101068.41;5064559;28;20306;-68
2024/01/14 10:42:37;;;;;;;;;;;;;;;1.06;100.00;101059.88;5063303;28;19923;-67
2024/01/14 10:45:06;;;;;;;;;;;;;;;1.06;100.00;101052.13;5052026;28;19929;-69
2024/01/14 10:47:33;;;;;;;;;;;;;;;1.04;100.00;101047.81;5056073;28;19999;-70
2024/01/14 10:49:59;;;;;;;;;;;;;;;1.07;100.00;101052.19;5060841;28;20384;-69
2024/01/14 10:52:26;;;;;;;;;;;;;;;0.98;100.00;101045.03;5057942;28;19927;-69
2024/01/14 10:54:55;;;;;;;;;;;;;;;0.94;100.00;101050.06;5069519;28;19916;-69
2024/01/14 10:57:32;;;;;;;;;;;;;;;0.91;100.00;101047.41;5067696;28;19961;-69
2024/01/14 11:00:04;;;;;;;;;;;;;;;0.88;100.00;101040.44;5071977;28;20015;-69
2024/01/14 11:02:31;;;;;;;;;;;;;;;0.89;100.00;101039.63;5071171;28;20002;-69
2024/01/14 11:04:58;;;;;;;;;;;;;;;0.82;100.00;101033.38;5048790;28;19978;-69
2024/01/14 11:07:24;;;;;;;;;;;;;;;0.80;100.00;101034.16;5059175;28;20331;-70
2024/01/14 11:09:50;;;;;;;;;;;;;;;0.77;100.00;101024.59;5049003;28;19924;-67
2024/01/14 11:12:18;;;;;;;;;;;;;;;0.79;100.00;101017.81;5050241;28;19931;-66
2024/01/14 11:14:46;;;;;;;;;;;;;;;0.76;100.00;101019.41;5063451;28;19935;-67
2024/01/14 11:17:41;;;;;;;;;;;;;;;0.78;100.00;101013.47;5066749;28;19917;-69
2024/01/14 11:20:10;;;;;;;;;;;;;;;0.83;100.00;101011.91;4987978;28;19917;-69
2024/01/14 11:22:35;;;;;;;;;;;;;;;0.85;100.00;101009.38;5077899;28;19921;-69
2024/01/14 11:25:04;;;;;;;;;;;;;;;0.83;100.00;101004.19;5063336;28;19923;-69
2024/01/14 11:27:29;;;;;;;;;;;;;;;0.78;100.00;100995.41;5055077;28;19928;-67
2024/01/14 11:29:55;;;;;;;;;;;;;;;0.79;100.00;100996.28;5048959;28;21294;-69
2024/01/14 11:32:21;;;;;;;;;;;;;;;0.80;100.00;100991.16;5052533;28;19931;-69
2024/01/14 11:34:46;;;;;;;;;;;;;;;0.83;100.00;100980.97;5068791;28;19970;-69
2024/01/14 11:37:38;;;;;;;;;;;;;;;0.83;100.00;100974.91;5067524;28;20409;-69
2024/01/14 11:40:16;;;;;;;;;;;;;;;0.80;100.00;100969.66;5079491;28;19928;-70
2024/01/14 11:42:50;;;;;;;;;;;;;;;0.81;100.00;100966.25;5058395;28;20364;-69
2024/01/14 11:45:22;;;;;;;;;;;;;;;0.81;100.00;100950.78;5057951;28;19927;-69
2024/01/14 11:47:48;;;;;;;;;;;;;;;0.80;100.00;100949.03;5060987;28;19923;-67
2024/01/14 11:50:16;;;;;;;;;;;;;;;0.84;100.00;100948.28;5062947;28;19920;-67
2024/01/14 11:52:45;;;;;;;;;;;;;;;0.78;100.00;100945.53;5061970;28;20383;-67
2024/01/14 11:55:16;;;;;;;;;;;;;;;0.71;100.00;100944.47;5067872;28;19920;-67
2024/01/14 11:57:41;;;;;;;;;;;;;;;0.66;100.00;100941.75;5050226;28;19928;-67
2024/01/14 12:00:07;;;;;;;;;;;;;;;0.64;100.00;100927.91;5062969;28;19929;-67
2024/01/14 12:02:33;;;;;;;;;;;;;;;0.62;100.00;100919.28;5061643;28;20012;-66
2024/01/14 12:05:14;;;;;;;;;;;;;;;0.57;100.00;100909.66;5068026;28;20340;-69
2024/01/14 12:07:39;;;;;;;;;;;;;;;0.54;100.00;100900.09;5058359;28;19920;-69
2024/01/14 12:10:04;;;;;;;;;;;;;;;0.57;100.00;100896.75;5052305;28;19950;-70
2024/01/14 12:12:30;;;;;;;;;;;;;;;0.49;100.00;100894.81;5041677;28;19925;-69
2024/01/14 12:14:55;;;;;;;;;;;;;;;0.48;100.00;100890.47;5041223;28;20015;-69
2024/01/14 12:17:21;;;;;;;;;;;;;;;0.46;100.00;100886.09;5062354;28;20265;-70
2024/01/14 12:19:58;;;;;;;;;;;;;;;0.40;100.00;100875.59;5064625;28;19947;-70
2024/01/14 12:22:25;;;;;;;;;;;;;;;0.36;100.00;100878.91;5055813;28;19975;-69
2024/01/14 12:24:50;;;;;;;;;;;;;;;0.37;100.00;100873.81;5058065;28;19966;-69
2024/01/14 12:27:16;;;;;;;;;;;;;;;0.31;100.00;100871.91;5047830;28;19963;-69
2024/01/14 12:29:41;;;;;;;;;;;;;;;0.32;100.00;100873.69;5040256;28;20391;-69
2024/01/14 12:32:07;;;;;;;;;;;;;;;0.33;100.00;100865.13;5046482;28;20010;-70
2024/01/14 12:34:32;;;;;;;;;;;;;;;0.35;100.00;100867.75;5063828;28;19920;-70
2024/01/14 12:36:57;;;;;;;;;;;;;;;0.34;100.00;100864.31;5049389;28;20376;-70